Terminal Aerodrome Forecast
Issued by NWS

Home | Current Version | Previous Version | Text Only | Print | Product List | Glossary On
Versions: 1 2 3 4 5 6 7 8 9 10 11 12 13
000
FTUS42 TJSJ 050500 RRA
TAFJMZ
TAF
TJMZ 050539Z 0506/0606 07006KT P6SM FEW030 SCT070
     FM051530 09012KT P6SM SCT040
     FM052330 06012KT P6SM SCT030
      AMD NOT SKED TIL 051500=

USA.gov is the U.S. government's official web portal to all federal, state and local government web resources and services.